createdAt,value
2022-08-27T00:01:37.222Z,11.93
2022-08-27T00:04:04.592Z,11.90
2022-08-27T00:06:31.820Z,13.52
2022-08-27T00:08:58.962Z,11.48
2022-08-27T00:11:26.165Z,10.32
2022-08-27T00:13:53.684Z,9.85
2022-08-27T00:16:21.009Z,10.00
2022-08-27T00:18:48.855Z,10.20
2022-08-27T00:21:16.421Z,8.18
2022-08-27T00:23:43.659Z,8.68
2022-08-27T00:26:10.964Z,11.02
2022-08-27T00:28:38.680Z,13.75
2022-08-27T00:31:06.124Z,11.00
2022-08-27T00:33:33.291Z,12.73
2022-08-27T00:36:00.566Z,10.30
2022-08-27T00:38:28.111Z,11.98
2022-08-27T00:40:55.462Z,11.32
2022-08-27T00:43:23.696Z,12.68
2022-08-27T00:45:51.767Z,12.40
2022-08-27T00:48:21.172Z,10.95
2022-08-27T00:50:51.544Z,13.45
2022-08-27T00:53:21.073Z,9.25
2022-08-27T00:55:53.684Z,12.75
2022-08-27T00:58:32.498Z,12.05
2022-08-27T01:01:00.876Z,10.48
2022-08-27T01:03:28.574Z,10.20
2022-08-27T01:05:56.962Z,8.85
2022-08-27T01:08:27.214Z,9.90
2022-08-27T01:10:55.435Z,14.38
2022-08-27T01:13:44.166Z,8.45
2022-08-27T01:16:12.707Z,10.93
2022-08-27T01:18:39.955Z,11.25
2022-08-27T01:21:35.170Z,9.73
2022-08-27T01:24:20.736Z,11.25
2022-08-27T01:26:48.211Z,9.05
2022-08-27T01:29:16.030Z,8.68
2022-08-27T01:31:43.212Z,7.40
2022-08-27T01:34:10.414Z,10.07
2022-08-27T01:36:37.542Z,9.32
2022-08-27T01:39:05.469Z,9.20
2022-08-27T01:41:33.090Z,9.40
2022-08-27T01:44:00.248Z,10.77
2022-08-27T01:46:28.591Z,11.57
2022-08-27T01:48:56.303Z,14.32
2022-08-27T01:51:23.494Z,9.73
2022-08-27T01:53:51.125Z,8.75
2022-08-27T01:56:18.334Z,9.68
2022-08-27T01:58:45.595Z,13.25
2022-08-27T02:01:13.995Z,13.10
2022-08-27T02:03:41.727Z,10.93
2022-08-27T02:06:11.480Z,11.07
2022-08-27T02:08:38.751Z,12.48
2022-08-27T02:11:06.058Z,13.18
2022-08-27T02:13:33.199Z,9.85
2022-08-27T02:16:00.440Z,11.45
2022-08-27T02:18:27.660Z,11.48
2022-08-27T02:20:54.839Z,11.07
2022-08-27T02:23:22.320Z,12.30
2022-08-27T02:25:49.484Z,11.88
2022-08-27T02:28:16.676Z,11.48
2022-08-27T02:30:43.999Z,11.95
2022-08-27T02:33:11.373Z,10.00
2022-08-27T02:35:40.464Z,10.90
2022-08-27T02:38:08.138Z,11.55
2022-08-27T02:40:37.189Z,10.90
2022-08-27T02:43:04.612Z,12.82
2022-08-27T02:45:31.793Z,15.50
2022-08-27T02:47:58.987Z,11.38
2022-08-27T02:50:27.003Z,16.40
2022-08-27T02:52:54.891Z,10.45
2022-08-27T02:55:22.880Z,12.05
2022-08-27T02:57:50.050Z,12.35
2022-08-27T03:00:18.824Z,12.02
2022-08-27T03:02:46.107Z,16.02
2022-08-27T03:05:13.850Z,12.07
2022-08-27T03:07:41.466Z,10.38
2022-08-27T03:10:09.483Z,9.63
2022-08-27T03:12:36.800Z,9.88
2022-08-27T03:15:05.251Z,11.05
2022-08-27T03:17:51.079Z,9.05
2022-08-27T03:20:18.855Z,8.63
2022-08-27T03:22:46.366Z,9.23
2022-08-27T03:25:13.589Z,10.80
2022-08-27T03:27:40.826Z,9.18
2022-08-27T03:30:10.562Z,6.78
2022-08-27T03:32:37.987Z,10.20
2022-08-27T03:35:05.314Z,7.55
2022-08-27T03:37:32.451Z,6.55
2022-08-27T03:39:59.662Z,6.75
2022-08-27T03:42:27.224Z,5.78
2022-08-27T03:44:54.560Z,7.50
2022-08-27T03:47:22.971Z,5.85
2022-08-27T03:49:51.292Z,5.55
2022-08-27T03:52:19.247Z,5.05
2022-08-27T03:54:46.484Z,6.97
2022-08-27T03:57:13.703Z,5.68
2022-08-27T03:59:40.871Z,6.57
2022-08-27T04:02:08.421Z,5.63
2022-08-27T04:04:35.877Z,6.30
2022-08-27T04:07:04.714Z,6.13
2022-08-27T04:09:31.900Z,6.57
2022-08-27T04:11:59.086Z,6.40
2022-08-27T04:14:27.544Z,7.78
2022-08-27T04:16:58.054Z,5.43
2022-08-27T04:19:28.018Z,6.05
2022-08-27T04:22:00.148Z,6.40
2022-08-27T04:24:27.344Z,5.93
2022-08-27T04:26:54.492Z,8.40
2022-08-27T04:29:21.655Z,7.40
2022-08-27T04:31:48.818Z,4.80
2022-08-27T04:34:17.172Z,7.47
2022-08-27T04:36:44.315Z,7.70
2022-08-27T04:39:11.443Z,6.97
2022-08-27T04:41:38.691Z,6.45
2022-08-27T04:44:07.402Z,6.22
2022-08-27T04:46:36.522Z,8.85
2022-08-27T04:49:10.031Z,8.80
2022-08-27T04:51:37.939Z,6.13
2022-08-27T04:54:07.705Z,5.32
2022-08-27T04:56:35.818Z,5.72
2022-08-27T04:59:04.075Z,5.63
2022-08-27T05:01:31.643Z,5.53
2022-08-27T05:03:59.305Z,11.25
2022-08-27T05:06:26.568Z,7.55
2022-08-27T05:08:54.441Z,5.20
2022-08-27T05:11:22.127Z,8.45
2022-08-27T05:13:49.924Z,8.05
2022-08-27T05:16:18.996Z,8.43
2022-08-27T05:18:48.297Z,5.57
2022-08-27T05:21:22.466Z,4.90
2022-08-27T05:23:50.150Z,8.23
2022-08-27T05:26:17.377Z,5.50
2022-08-27T05:28:44.708Z,5.53
2022-08-27T05:31:13.010Z,5.30
2022-08-27T05:33:41.035Z,7.38
2022-08-27T05:36:08.807Z,8.30
2022-08-27T05:38:36.204Z,6.88
2022-08-27T05:41:05.131Z,9.25
2022-08-27T05:43:32.318Z,13.20
2022-08-27T05:45:59.745Z,6.25
2022-08-27T05:48:26.945Z,5.00
2022-08-27T05:50:54.115Z,6.50
2022-08-27T05:53:21.258Z,4.30
2022-08-27T05:55:48.918Z,4.65
2022-08-27T05:58:34.627Z,4.25
2022-08-27T06:01:08.234Z,6.25
2022-08-27T06:03:38.152Z,3.78
2022-08-27T06:06:07.250Z,4.25
2022-08-27T06:08:34.848Z,4.25
2022-08-27T06:11:02.552Z,4.05
2022-08-27T06:13:31.135Z,4.53
2022-08-27T06:16:02.342Z,6.35
2022-08-27T06:18:30.145Z,4.30
2022-08-27T06:20:57.867Z,4.18
2022-08-27T06:23:27.889Z,5.40
2022-08-27T06:25:56.868Z,3.53
2022-08-27T06:28:24.863Z,3.95
2022-08-27T06:30:52.391Z,4.10
2022-08-27T06:33:21.258Z,5.60
2022-08-27T06:35:48.510Z,7.45
2022-08-27T06:38:15.644Z,5.22
2022-08-27T06:40:43.006Z,3.45
2022-08-27T06:43:10.240Z,5.15
2022-08-27T06:45:40.429Z,2.70
2022-08-27T06:48:07.636Z,3.50
2022-08-27T06:50:41.803Z,3.65
2022-08-27T06:53:09.036Z,4.13
2022-08-27T06:55:43.549Z,4.32
2022-08-27T06:58:11.247Z,4.20
2022-08-27T07:00:38.558Z,3.35
2022-08-27T07:03:06.412Z,4.93
2022-08-27T07:05:34.572Z,6.45
2022-08-27T07:08:01.852Z,6.13
2022-08-27T07:10:29.815Z,4.30
2022-08-27T07:12:56.978Z,7.35
2022-08-27T07:15:25.257Z,4.90
2022-08-27T07:17:55.193Z,5.57
2022-08-27T07:20:22.435Z,5.28
2022-08-27T07:22:49.650Z,5.53
2022-08-27T07:25:20.299Z,6.90
2022-08-27T07:27:48.775Z,7.22
2022-08-27T07:30:16.447Z,8.48
2022-08-27T07:32:44.276Z,7.20
2022-08-27T07:35:11.496Z,6.35
2022-08-27T07:37:39.341Z,6.10
2022-08-27T07:40:14.349Z,8.85
2022-08-27T07:43:01.457Z,5.68
2022-08-27T07:45:29.912Z,8.15
2022-08-27T07:47:57.086Z,7.97
2022-08-27T07:50:24.326Z,7.47
2022-08-27T07:52:52.443Z,6.90
2022-08-27T07:55:19.999Z,10.85
2022-08-27T07:57:48.381Z,6.65
2022-08-27T08:00:15.787Z,6.10
2022-08-27T08:02:45.006Z,6.03
2022-08-27T08:05:12.702Z,6.30
2022-08-27T08:07:40.010Z,6.40
2022-08-27T08:10:08.481Z,6.90
2022-08-27T08:12:36.570Z,6.25
2022-08-27T08:15:04.871Z,6.93
2022-08-27T08:17:33.401Z,7.43
2022-08-27T08:20:19.875Z,8.23
2022-08-27T08:22:48.831Z,6.45
2022-08-27T08:25:16.330Z,7.45
2022-08-27T08:27:43.565Z,6.22
2022-08-27T08:30:12.113Z,6.05
2022-08-27T08:32:39.499Z,6.13
2022-08-27T08:35:08.024Z,8.90
2022-08-27T08:37:36.077Z,8.10
2022-08-27T08:40:03.601Z,5.97
2022-08-27T08:42:30.904Z,6.22
2022-08-27T08:44:59.967Z,5.13
2022-08-27T08:47:33.272Z,5.80
2022-08-27T08:50:00.408Z,6.22
2022-08-27T08:52:33.734Z,8.02
2022-08-27T08:55:09.705Z,6.45
2022-08-27T08:57:44.466Z,5.28
2022-08-27T09:02:43.924Z,4.70
2022-08-27T09:05:11.470Z,5.22
2022-08-27T09:07:58.251Z,4.60
2022-08-27T09:10:43.092Z,7.93
2022-08-27T09:13:19.406Z,6.57
2022-08-27T09:15:47.489Z,4.38
2022-08-27T09:18:15.689Z,4.88
2022-08-27T09:20:44.707Z,5.22
2022-08-27T09:23:15.688Z,5.65
2022-08-27T09:25:44.728Z,4.10
2022-08-27T09:28:35.081Z,3.95
2022-08-27T09:31:14.669Z,6.70
2022-08-27T09:33:56.034Z,6.70
2022-08-27T09:36:24.607Z,4.85
2022-08-27T09:38:57.931Z,7.63
2022-08-27T09:41:28.409Z,6.77
2022-08-27T09:44:02.962Z,5.40
2022-08-27T09:46:31.200Z,3.95
2022-08-27T09:48:58.384Z,6.38
2022-08-27T09:51:28.092Z,6.18
2022-08-27T09:53:55.878Z,5.93
2022-08-27T09:56:29.005Z,5.40
2022-08-27T09:59:01.649Z,4.25
2022-08-27T10:01:30.777Z,5.18
2022-08-27T10:04:14.941Z,4.78
2022-08-27T10:06:46.788Z,4.97
2022-08-27T10:09:16.631Z,4.95
2022-08-27T10:11:50.136Z,4.65
2022-08-27T10:14:24.941Z,7.28
2022-08-27T10:16:59.057Z,4.80
2022-08-27T10:19:34.643Z,5.15
2022-08-27T10:22:20.991Z,7.30
2022-08-27T10:24:54.181Z,7.18
2022-08-27T10:27:35.007Z,5.10
2022-08-27T10:30:02.159Z,7.72
2022-08-27T10:32:38.582Z,5.35
2022-08-27T10:35:10.316Z,4.80
2022-08-27T10:37:44.791Z,6.57
2022-08-27T10:40:21.425Z,5.70
2022-08-27T10:43:04.325Z,4.50
2022-08-27T10:45:43.019Z,6.70
2022-08-27T10:48:24.528Z,5.30
2022-08-27T10:51:04.484Z,5.57
2022-08-27T10:53:50.044Z,4.40
2022-08-27T10:56:26.611Z,4.75
2022-08-27T10:59:01.683Z,6.70
2022-08-27T11:01:41.086Z,5.50
2022-08-27T11:04:26.374Z,5.47
2022-08-27T11:07:00.600Z,5.43
2022-08-27T11:09:35.624Z,4.95
2022-08-27T11:12:20.179Z,5.22
2022-08-27T11:14:59.046Z,5.80
2022-08-27T11:17:34.970Z,5.75
2022-08-27T11:20:08.389Z,5.80
2022-08-27T11:22:45.985Z,5.45
2022-08-27T11:25:28.353Z,7.95
2022-08-27T11:27:56.755Z,4.97
2022-08-27T11:30:25.413Z,5.28
2022-08-27T11:32:58.043Z,5.03
2022-08-27T11:35:34.727Z,7.50
2022-08-27T11:38:19.133Z,5.82
2022-08-27T11:40:53.811Z,5.35
2022-08-27T11:45:54.134Z,5.43
2022-08-27T11:48:21.331Z,5.43
2022-08-27T11:50:56.430Z,8.35
2022-08-27T11:53:28.935Z,8.02
2022-08-27T11:55:56.783Z,5.03
2022-08-27T11:58:29.231Z,4.88
2022-08-27T12:01:02.233Z,4.70
2022-08-27T12:03:33.431Z,5.95
2022-08-27T12:06:02.753Z,3.75
2022-08-27T12:08:31.301Z,5.50
2022-08-27T12:11:01.539Z,5.85
2022-08-27T12:13:36.216Z,5.10
2022-08-27T12:16:26.613Z,8.27
2022-08-27T12:19:12.404Z,4.75
2022-08-27T12:21:58.460Z,4.38
2022-08-27T12:24:44.115Z,3.83
2022-08-27T12:27:16.699Z,5.43
2022-08-27T12:29:51.518Z,4.28
2022-08-27T12:32:24.997Z,4.68
2022-08-27T12:35:03.622Z,4.88
2022-08-27T12:37:32.750Z,6.22
2022-08-27T12:40:01.861Z,4.47
2022-08-27T12:42:29.020Z,6.85
2022-08-27T12:44:57.274Z,4.05
2022-08-27T12:47:24.844Z,3.95
2022-08-27T12:49:55.923Z,5.18
2022-08-27T12:52:23.129Z,5.43
2022-08-27T12:55:06.334Z,6.03
2022-08-27T12:57:37.302Z,3.50
2022-08-27T13:00:07.486Z,5.82
2022-08-27T13:02:53.442Z,5.40
2022-08-27T13:05:21.578Z,6.97
2022-08-27T13:07:49.366Z,4.32
2022-08-27T13:10:27.301Z,3.90
2022-08-27T13:13:20.645Z,4.75
2022-08-27T13:15:49.458Z,4.82
2022-08-27T13:18:17.624Z,3.83
2022-08-27T13:20:52.599Z,5.82
2022-08-27T13:23:22.483Z,5.07
2022-08-27T13:25:59.429Z,4.30
2022-08-27T13:28:27.714Z,5.32
2022-08-27T13:30:55.028Z,3.80
2022-08-27T13:33:23.517Z,7.45
2022-08-27T13:35:51.181Z,4.28
2022-08-27T13:38:19.157Z,6.80
2022-08-27T13:40:54.930Z,5.45
2022-08-27T13:43:23.196Z,5.93
2022-08-27T13:45:54.379Z,5.05
2022-08-27T13:48:24.295Z,4.18
2022-08-27T13:50:53.046Z,5.03
2022-08-27T13:53:40.755Z,4.40
2022-08-27T13:56:08.197Z,7.10
2022-08-27T13:58:35.502Z,4.10
2022-08-27T14:01:14.228Z,3.92
2022-08-27T14:03:51.944Z,6.65
2022-08-27T14:06:35.716Z,4.65
2022-08-27T14:09:16.059Z,6.22
2022-08-27T14:11:44.043Z,5.22
2022-08-27T14:14:11.240Z,4.70
2022-08-27T14:16:40.302Z,6.20
2022-08-27T14:19:07.501Z,4.78
2022-08-27T14:21:35.478Z,4.45
2022-08-27T14:24:03.235Z,5.80
2022-08-27T14:26:30.759Z,4.15
2022-08-27T14:28:58.104Z,5.50
2022-08-27T14:31:25.607Z,5.15
2022-08-27T14:33:56.772Z,5.85
2022-08-27T14:36:25.073Z,5.30
2022-08-27T14:38:53.810Z,5.90
2022-08-27T14:41:21.714Z,5.72
2022-08-27T14:43:49.352Z,4.70
2022-08-27T14:46:23.758Z,4.88
2022-08-27T14:48:52.896Z,3.95
2022-08-27T14:51:22.823Z,5.40
2022-08-27T14:53:51.223Z,4.47
2022-08-27T14:56:18.647Z,5.90
2022-08-27T14:58:45.811Z,6.07
2022-08-27T15:01:13.689Z,4.68
2022-08-27T15:03:44.447Z,6.07
2022-08-27T15:06:11.595Z,3.63
2022-08-27T15:08:38.741Z,7.07
2022-08-27T15:11:07.246Z,5.80
2022-08-27T15:13:34.899Z,4.32
2022-08-27T15:16:05.794Z,4.47
2022-08-27T15:18:33.011Z,5.68
2022-08-27T15:21:00.411Z,4.78
2022-08-27T15:23:27.554Z,4.10
2022-08-27T15:25:54.711Z,4.07
2022-08-27T15:28:21.972Z,4.07
2022-08-27T15:30:49.190Z,14.25
2022-08-27T15:33:16.530Z,6.03
2022-08-27T15:35:43.726Z,4.68
2022-08-27T15:38:11.163Z,5.28
2022-08-27T15:40:38.694Z,6.05
2022-08-27T15:43:06.944Z,3.78
2022-08-27T15:45:34.395Z,7.53
2022-08-27T15:48:01.781Z,4.30
2022-08-27T15:50:29.784Z,3.70
2022-08-27T15:52:58.553Z,4.15
2022-08-27T15:55:28.070Z,6.32
2022-08-27T15:57:55.642Z,4.82
2022-08-27T16:00:23.282Z,6.60
2022-08-27T16:02:51.023Z,4.65
2022-08-27T16:05:18.808Z,4.47
2022-08-27T16:07:46.941Z,5.82
2022-08-27T16:10:14.686Z,5.07
2022-08-27T16:12:41.939Z,5.15
2022-08-27T16:15:09.507Z,5.63
2022-08-27T16:17:36.897Z,6.53
2022-08-27T16:20:05.241Z,6.70
2022-08-27T16:22:32.434Z,9.25
2022-08-27T16:24:59.613Z,6.40
2022-08-27T16:27:26.803Z,7.72
2022-08-27T16:29:54.036Z,5.10
2022-08-27T16:32:22.993Z,6.93
2022-08-27T16:34:56.068Z,5.82
2022-08-27T16:37:24.199Z,6.90
2022-08-27T16:39:51.601Z,7.78
2022-08-27T16:42:18.805Z,6.80
2022-08-27T16:44:45.988Z,7.15
2022-08-27T16:47:13.272Z,7.50
2022-08-27T16:49:58.988Z,6.10
2022-08-27T16:52:26.120Z,6.85
2022-08-27T16:54:53.379Z,7.75
2022-08-27T16:57:20.836Z,12.10
2022-08-27T16:59:48.083Z,6.32
2022-08-27T17:02:25.776Z,5.28
2022-08-27T17:05:17.358Z,6.47
2022-08-27T17:07:46.169Z,5.20
2022-08-27T17:10:17.671Z,8.25
2022-08-27T17:12:46.272Z,6.38
2022-08-27T17:15:14.531Z,7.57
2022-08-27T17:17:41.909Z,6.28
2022-08-27T17:20:09.319Z,8.70
2022-08-27T17:22:36.544Z,5.30
2022-08-27T17:25:04.076Z,6.90
2022-08-27T17:27:31.277Z,5.95
2022-08-27T17:29:58.424Z,5.20
2022-08-27T17:32:25.696Z,4.80
2022-08-27T17:34:52.910Z,6.40
2022-08-27T17:37:20.057Z,4.63
2022-08-27T17:39:47.259Z,4.75
2022-08-27T17:42:14.697Z,5.53
2022-08-27T17:44:41.879Z,5.40
2022-08-27T17:47:09.428Z,4.40
2022-08-27T17:49:37.517Z,5.80
2022-08-27T17:52:06.251Z,5.63
2022-08-27T17:54:33.466Z,7.43
2022-08-27T17:57:01.857Z,5.75
2022-08-27T17:59:29.499Z,7.45
2022-08-27T18:01:57.368Z,5.55
2022-08-27T18:04:24.616Z,8.35
2022-08-27T18:06:51.812Z,6.43
2022-08-27T18:09:19.020Z,6.25
2022-08-27T18:11:46.540Z,6.80
2022-08-27T18:14:18.172Z,6.47
2022-08-27T18:16:45.881Z,6.43
2022-08-27T18:19:13.290Z,7.95
2022-08-27T18:21:46.914Z,10.77
2022-08-27T18:24:14.561Z,11.55
2022-08-27T18:26:41.880Z,6.03
2022-08-27T18:29:09.118Z,7.22
2022-08-27T18:31:36.268Z,12.30
2022-08-27T18:34:03.433Z,9.25
2022-08-27T18:36:31.310Z,7.07
2022-08-27T18:38:58.839Z,9.18
2022-08-27T18:41:26.526Z,7.95
2022-08-27T18:43:54.767Z,8.65
2022-08-27T18:46:22.029Z,7.60
2022-08-27T18:48:49.239Z,7.55
2022-08-27T18:51:19.565Z,8.00
2022-08-27T18:53:47.399Z,11.40
2022-08-27T18:56:16.878Z,10.45
2022-08-27T18:58:44.159Z,10.43
2022-08-27T19:01:13.107Z,11.07
2022-08-27T19:03:42.726Z,9.35
2022-08-27T19:06:10.065Z,10.63
2022-08-27T19:08:37.975Z,9.50
2022-08-27T19:11:05.303Z,10.98
2022-08-27T19:13:32.562Z,9.18
2022-08-27T19:16:01.375Z,11.95
2022-08-27T19:18:29.889Z,10.98
2022-08-27T19:20:57.583Z,9.18
2022-08-27T19:23:25.230Z,11.85
2022-08-27T19:25:53.052Z,9.60
2022-08-27T19:28:23.567Z,10.48
2022-08-27T19:30:50.770Z,8.18
2022-08-27T19:33:18.039Z,11.88
2022-08-27T19:35:45.254Z,9.68
2022-08-27T19:38:13.215Z,8.73
2022-08-27T19:40:41.388Z,8.07
2022-08-27T19:43:08.721Z,8.25
2022-08-27T19:45:36.099Z,9.50
2022-08-27T19:48:07.589Z,10.45
2022-08-27T19:50:34.826Z,11.77
2022-08-27T19:53:01.970Z,11.60
2022-08-27T19:55:29.410Z,8.73
2022-08-27T19:57:56.570Z,9.40
2022-08-27T20:00:27.824Z,9.93
2022-08-27T20:02:55.548Z,10.40
2022-08-27T20:05:23.269Z,10.43
2022-08-27T20:07:51.886Z,11.95
2022-08-27T20:10:31.813Z,11.52
2022-08-27T20:13:04.626Z,14.05
2022-08-27T20:15:31.854Z,13.25
2022-08-27T20:17:59.666Z,10.85
2022-08-27T20:20:27.059Z,13.18
2022-08-27T20:22:55.765Z,14.65
2022-08-27T20:25:23.366Z,11.10
2022-08-27T20:27:50.918Z,12.18
2022-08-27T20:30:19.917Z,12.77
2022-08-27T20:32:47.219Z,10.88
2022-08-27T20:35:15.149Z,12.75
2022-08-27T20:37:42.746Z,13.77
2022-08-27T20:40:11.771Z,12.18
2022-08-27T20:42:39.259Z,13.32
2022-08-27T20:45:11.241Z,10.73
2022-08-27T20:47:39.614Z,12.82
2022-08-27T20:50:07.339Z,12.55
2022-08-27T20:52:35.591Z,9.75
2022-08-27T20:55:03.013Z,8.25
2022-08-27T20:57:30.174Z,7.18
2022-08-27T21:00:15.885Z,9.98
2022-08-27T21:02:43.062Z,9.27
2022-08-27T21:05:15.654Z,5.35
2022-08-27T21:07:44.490Z,5.55
2022-08-27T21:10:11.658Z,7.15
2022-08-27T21:12:38.871Z,3.83
2022-08-27T21:15:06.594Z,5.47
2022-08-27T21:17:33.744Z,3.97
2022-08-27T21:20:00.987Z,4.45
2022-08-27T21:22:28.428Z,3.95
2022-08-27T21:24:55.767Z,4.63
2022-08-27T21:27:23.160Z,3.58
2022-08-27T21:29:50.612Z,4.90
2022-08-27T21:32:17.883Z,3.40
2022-08-27T21:34:45.051Z,4.32
2022-08-27T21:37:13.576Z,3.00
2022-08-27T21:39:41.963Z,3.97
2022-08-27T21:42:09.372Z,3.42
2022-08-27T21:44:37.381Z,5.90
2022-08-27T21:47:05.040Z,4.43
2022-08-27T21:49:32.581Z,5.18
2022-08-27T21:52:00.626Z,3.33
2022-08-27T21:54:28.004Z,4.03
2022-08-27T21:56:55.402Z,2.85
2022-08-27T21:59:22.550Z,3.10
2022-08-27T22:01:55.800Z,2.70
2022-08-27T22:04:30.896Z,2.70
2022-08-27T22:06:59.280Z,2.42
2022-08-27T22:09:27.201Z,2.67
2022-08-27T22:11:54.762Z,3.92
2022-08-27T22:14:21.935Z,3.47
2022-08-27T22:16:49.054Z,3.60
2022-08-27T22:19:16.452Z,2.78
2022-08-27T22:21:43.903Z,2.40
2022-08-27T22:24:11.067Z,3.28
2022-08-27T22:26:38.539Z,3.28
2022-08-27T22:29:05.899Z,3.28
2022-08-27T22:31:33.416Z,2.75
2022-08-27T22:34:01.259Z,5.10
2022-08-27T22:36:28.711Z,2.72
2022-08-27T22:38:59.891Z,10.30
2022-08-27T22:41:32.692Z,4.32
2022-08-27T22:44:00.005Z,2.78
2022-08-27T22:46:27.367Z,4.35
2022-08-27T22:48:54.532Z,3.42
2022-08-27T22:51:21.694Z,3.67
2022-08-27T22:53:48.822Z,3.58
2022-08-27T22:56:15.962Z,1.85
2022-08-27T22:58:45.813Z,2.40
2022-08-27T23:01:13.522Z,2.53
2022-08-27T23:03:40.697Z,3.17
2022-08-27T23:06:07.961Z,4.68
2022-08-27T23:08:35.188Z,3.92
2022-08-27T23:11:03.432Z,3.50
2022-08-27T23:13:31.548Z,4.15
2022-08-27T23:15:59.474Z,2.72
2022-08-27T23:18:26.746Z,3.35
2022-08-27T23:20:53.919Z,3.08
2022-08-27T23:23:21.076Z,2.97
2022-08-27T23:26:07.096Z,2.88
2022-08-27T23:28:34.298Z,2.72
2022-08-27T23:31:02.345Z,5.13
2022-08-27T23:33:29.608Z,3.83
2022-08-27T23:35:56.739Z,4.45
2022-08-27T23:38:23.961Z,2.83
2022-08-27T23:40:52.140Z,3.92
2022-08-27T23:43:19.491Z,3.90
2022-08-27T23:45:48.175Z,1.95
2022-08-27T23:48:15.339Z,1.85
2022-08-27T23:50:42.570Z,2.70
2022-08-27T23:53:09.881Z,3.42
2022-08-27T23:55:38.567Z,2.60
2022-08-27T23:58:06.846Z,2.60
